createdAt,value
2023-05-02T00:00:14.275Z,33.49
2023-05-02T00:02:19.559Z,33.54
2023-05-02T00:04:24.971Z,33.65
2023-05-02T00:06:30.357Z,33.62
2023-05-02T00:08:35.494Z,33.69
2023-05-02T00:10:40.499Z,33.73
2023-05-02T00:12:45.476Z,33.61
2023-05-02T00:14:50.552Z,33.75
2023-05-02T00:16:55.639Z,33.75
2023-05-02T00:19:00.692Z,33.79
2023-05-02T00:21:05.679Z,33.91
2023-05-02T00:23:10.623Z,33.77
2023-05-02T00:25:15.577Z,33.74
2023-05-02T00:27:20.560Z,33.92
2023-05-02T00:29:25.539Z,33.78
2023-05-02T00:31:30.758Z,33.85
2023-05-02T00:33:35.822Z,33.78
2023-05-02T00:35:40.808Z,33.9
2023-05-02T00:37:45.809Z,34.02
2023-05-02T00:39:50.792Z,33.95
2023-05-02T00:41:55.779Z,33.94
2023-05-02T00:44:00.742Z,34.03
2023-05-02T00:46:05.929Z,34.28
2023-05-02T00:48:11.107Z,34.14
2023-05-02T00:50:16.207Z,34.17
2023-05-02T00:52:21.189Z,34.18
2023-05-02T00:54:26.203Z,34.14
2023-05-02T00:56:31.282Z,34.22
2023-05-02T00:58:36.271Z,34.08
2023-05-02T01:00:41.282Z,34.09
2023-05-02T01:02:46.598Z,34.16
2023-05-02T01:04:51.632Z,34.22
2023-05-02T01:06:56.739Z,34.28
2023-05-02T01:09:01.685Z,34.25
2023-05-02T01:11:06.687Z,34.16
2023-05-02T01:13:11.649Z,34.35
2023-05-02T01:15:16.632Z,34.14
2023-05-02T01:17:21.604Z,34.35
2023-05-02T01:19:26.552Z,34.45
2023-05-02T01:21:31.601Z,34.27
2023-05-02T01:23:36.580Z,34.37
2023-05-02T01:25:41.666Z,34.49
2023-05-02T01:27:46.669Z,34.47
2023-05-02T01:29:51.642Z,34.34
2023-05-02T01:31:56.980Z,34.34
2023-05-02T01:34:02.061Z,34.41
2023-05-02T01:36:07.071Z,34.28
2023-05-02T01:38:12.077Z,34.35
2023-05-02T01:40:17.058Z,34.48
2023-05-02T01:42:22.030Z,34.59
2023-05-02T01:44:36.740Z,34.58
2023-05-02T01:46:41.895Z,34.79
2023-05-02T01:48:46.958Z,34.69
2023-05-02T01:50:52.014Z,34.6
2023-05-02T01:52:57.120Z,34.66
2023-05-02T01:55:02.172Z,34.65
2023-05-02T01:57:07.186Z,34.73
2023-05-02T01:59:12.298Z,34.77
2023-05-02T02:01:17.568Z,34.87
2023-05-02T02:03:22.791Z,34.9
2023-05-02T02:05:27.961Z,34.67
2023-05-02T02:07:32.899Z,34.73
2023-05-02T02:09:37.882Z,34.85
2023-05-02T02:11:42.840Z,34.88
2023-05-02T02:13:47.886Z,34.97
2023-05-02T02:15:52.848Z,34.84
2023-05-02T02:17:58.012Z,34.81
2023-05-02T02:20:03.749Z,35.01
2023-05-02T02:22:08.864Z,34.93
2023-05-02T02:24:13.858Z,34.79
2023-05-02T02:26:18.854Z,34.94
2023-05-02T02:28:23.843Z,35.08
2023-05-02T02:30:28.924Z,35.05
2023-05-02T02:32:34.156Z,34.89
2023-05-02T02:34:39.269Z,34.88
2023-05-02T02:36:44.257Z,35.3
2023-05-02T02:38:49.261Z,35.22
2023-05-02T02:40:54.215Z,35
2023-05-02T02:42:59.181Z,35.19
2023-05-02T02:45:04.278Z,35.27
2023-05-02T02:47:09.316Z,35.09
2023-05-02T02:49:14.342Z,35.15
2023-05-02T02:51:19.347Z,35.21
2023-05-02T02:53:24.335Z,35.38
2023-05-02T02:55:29.303Z,35.38
2023-05-02T02:57:34.260Z,35.38
2023-05-02T02:59:39.348Z,35.26
2023-05-02T03:01:44.409Z,35.48
2023-05-02T03:03:49.591Z,35.41
2023-05-02T03:05:54.613Z,34.8
2023-05-02T03:07:59.600Z,32.99
2023-05-02T03:10:05.097Z,32.35
2023-05-02T03:12:10.088Z,31.94
2023-05-02T03:14:15.073Z,31.75
2023-05-02T03:16:20.440Z,31.69
2023-05-02T03:18:25.560Z,31.52
2023-05-02T03:20:30.664Z,31.54
2023-05-02T03:22:35.708Z,31.34
2023-05-02T03:24:40.853Z,31.4
2023-05-02T03:26:45.879Z,31.41
2023-05-02T03:28:50.906Z,31.27
2023-05-02T03:30:56.038Z,31.29
2023-05-02T03:33:01.353Z,31.02
2023-05-02T03:35:06.475Z,31.11
2023-05-02T03:37:11.526Z,30.99
2023-05-02T03:39:16.559Z,30.94
2023-05-02T03:41:21.587Z,30.94
2023-05-02T03:43:26.665Z,31.18
2023-05-02T03:45:31.772Z,30.87
2023-05-02T03:47:37.008Z,30.87
2023-05-02T03:49:42.175Z,30.77
2023-05-02T03:51:47.250Z,30.92
2023-05-02T03:53:52.262Z,30.75
2023-05-02T03:55:57.325Z,30.83
2023-05-02T03:58:02.357Z,30.95
2023-05-02T04:00:07.381Z,30.95
2023-05-02T04:02:12.673Z,31.02
2023-05-02T04:04:17.941Z,31.2
2023-05-02T04:06:23.226Z,31.19
2023-05-02T04:08:28.418Z,31.09
2023-05-02T04:10:33.468Z,31.36
2023-05-02T04:12:38.505Z,31.31
2023-05-02T04:14:43.621Z,31.49
2023-05-02T04:16:48.830Z,31.33
2023-05-02T04:18:53.878Z,31.37
2023-05-02T04:20:58.921Z,31.56
2023-05-02T04:23:04.082Z,31.56
2023-05-02T04:25:09.094Z,31.58
2023-05-02T04:27:17.406Z,31.62
2023-05-02T04:29:22.445Z,31.62
2023-05-02T04:31:27.728Z,31.73
2023-05-02T04:33:32.871Z,31.79
2023-05-02T04:35:37.927Z,31.91
2023-05-02T04:37:42.940Z,31.99
2023-05-02T04:39:47.980Z,32.06
2023-05-02T04:41:53.010Z,32.29
2023-05-02T04:43:58.022Z,32.32
2023-05-02T04:46:03.268Z,32.37
2023-05-02T04:48:08.593Z,32.38
2023-05-02T04:50:13.736Z,32.48
2023-05-02T04:52:18.774Z,32.5
2023-05-02T04:54:23.817Z,32.6
2023-05-02T04:56:28.847Z,32.76
2023-05-02T04:58:33.863Z,32.75
2023-05-02T05:00:38.940Z,32.74
2023-05-02T05:02:44.341Z,32.88
2023-05-02T05:04:49.504Z,33.01
2023-05-02T05:06:55.059Z,33.05
2023-05-02T05:09:00.169Z,33.19
2023-05-02T05:11:05.207Z,33.25
2023-05-02T05:13:10.626Z,33.24
2023-05-02T05:15:15.759Z,33.41
2023-05-02T05:17:20.891Z,33.5
2023-05-02T05:19:25.922Z,33.6
2023-05-02T05:21:31.017Z,33.75
2023-05-02T05:23:36.078Z,33.81
2023-05-02T05:25:41.849Z,33.86
2023-05-02T05:27:47.498Z,33.84
2023-05-02T05:29:52.534Z,33.87
2023-05-02T05:31:57.832Z,33.83
2023-05-02T05:34:03.157Z,33.85
2023-05-02T05:36:08.214Z,33.95
2023-05-02T05:38:13.237Z,34.16
2023-05-02T05:40:18.277Z,34.08
2023-05-02T05:42:23.336Z,34.09
2023-05-02T05:44:28.437Z,34.13
2023-05-02T05:46:33.723Z,34.19
2023-05-02T05:48:38.859Z,34.32
2023-05-02T05:50:43.991Z,34.17
2023-05-02T05:52:49.008Z,34.33
2023-05-02T05:54:54.158Z,34.33
2023-05-02T05:56:59.197Z,34.41
2023-05-02T05:59:04.270Z,34.53
2023-05-02T06:01:09.346Z,34.48
2023-05-02T06:03:14.908Z,34.54
2023-05-02T06:05:20.176Z,34.47
2023-05-02T06:07:25.213Z,34.43
2023-05-02T06:09:30.290Z,34.36
2023-05-02T06:11:35.309Z,34.24
2023-05-02T06:13:40.380Z,34.18
2023-05-02T06:15:45.502Z,34.15
2023-05-02T06:17:50.834Z,34.23
2023-05-02T06:19:56.012Z,34.24
2023-05-02T06:22:01.148Z,34.29
2023-05-02T06:24:06.218Z,34.37
2023-05-02T06:26:11.297Z,34.4
2023-05-02T06:28:16.332Z,34.36
2023-05-02T06:30:21.473Z,34.49
2023-05-02T06:32:26.774Z,34.42
2023-05-02T06:34:31.798Z,34.51
2023-05-02T06:36:36.907Z,34.4
2023-05-02T06:38:42.078Z,34.49
2023-05-02T06:40:47.138Z,34.37
2023-05-02T06:42:52.264Z,34.36
2023-05-02T06:44:57.362Z,34.52
2023-05-02T06:47:02.698Z,34.48
2023-05-02T06:49:07.908Z,34.61
2023-05-02T06:51:12.879Z,34.61
2023-05-02T06:53:17.894Z,34.65
2023-05-02T06:55:23.045Z,34.79
2023-05-02T06:57:28.154Z,34.62
2023-05-02T06:59:33.210Z,34.62
2023-05-02T07:01:38.737Z,34.78
2023-05-02T07:03:44.019Z,34.71
2023-05-02T07:05:49.242Z,34.68
2023-05-02T07:07:54.270Z,34.73
2023-05-02T07:09:59.950Z,35.3
2023-05-02T07:12:08.325Z,35.58
2023-05-02T07:14:13.356Z,35.55
2023-05-02T07:16:18.582Z,36.07
2023-05-02T07:18:23.634Z,36.13
2023-05-02T07:20:28.830Z,36.15
2023-05-02T07:22:33.944Z,36.07
2023-05-02T07:24:39.075Z,36.19
2023-05-02T07:26:44.180Z,36.29
2023-05-02T07:28:49.237Z,36.45
2023-05-02T07:30:54.249Z,36.72
2023-05-02T07:32:59.415Z,36.48
2023-05-02T07:35:04.538Z,36.73
2023-05-02T07:37:09.609Z,36.56
2023-05-02T07:39:14.778Z,36.72
2023-05-02T07:41:19.930Z,36.57
2023-05-02T07:43:24.893Z,36.58
2023-05-02T07:45:29.975Z,36.46
2023-05-02T07:47:35.068Z,36.18
2023-05-02T07:49:40.113Z,36.05
2023-05-02T07:51:45.238Z,35.88
2023-05-02T07:53:50.279Z,36.01
2023-05-02T07:55:55.406Z,36.21
2023-05-02T07:58:00.453Z,35.72
2023-05-02T08:00:06.435Z,35.74
2023-05-02T08:02:11.745Z,35.67
2023-05-02T08:04:17.778Z,35.68
2023-05-02T08:06:23.306Z,35.66
2023-05-02T08:08:28.418Z,35.53
2023-05-02T08:10:33.497Z,35.52
2023-05-02T08:12:38.606Z,35.36
2023-05-02T08:14:43.703Z,35.39
2023-05-02T08:16:49.358Z,35.25
2023-05-02T08:18:54.448Z,35.21
2023-05-02T08:20:59.793Z,35.24
2023-05-02T08:23:04.963Z,35.15
2023-05-02T08:25:10.026Z,34.91
2023-05-02T08:27:15.091Z,34.87
2023-05-02T08:29:20.191Z,34.88
2023-05-02T08:31:25.452Z,34.85
2023-05-02T08:33:30.592Z,35.05
2023-05-02T08:35:35.650Z,34.98
2023-05-02T08:37:40.765Z,35.37
2023-05-02T08:39:45.876Z,35.66
2023-05-02T08:41:51.028Z,35.98
2023-05-02T08:43:56.066Z,35.99
2023-05-02T08:46:01.082Z,35.8
2023-05-02T08:48:06.285Z,35.42
2023-05-02T08:50:11.385Z,35.32
2023-05-02T08:52:16.539Z,35.28
2023-05-02T08:54:21.659Z,35.16
2023-05-02T08:56:26.821Z,35.1
2023-05-02T08:58:31.896Z,35.04
2023-05-02T09:00:36.959Z,35
2023-05-02T09:02:42.191Z,34.95
2023-05-02T09:04:47.447Z,34.93
2023-05-02T09:06:52.899Z,34.88
2023-05-02T09:08:58.023Z,34.82
2023-05-02T09:11:03.036Z,34.81
2023-05-02T09:13:08.081Z,34.76
2023-05-02T09:15:13.112Z,34.75
2023-05-02T09:17:18.267Z,34.7
2023-05-02T09:19:23.281Z,34.69
2023-05-02T09:21:28.623Z,34.7
2023-05-02T09:23:33.674Z,34.7
2023-05-02T09:25:38.816Z,34.69
2023-05-02T09:27:44.099Z,34.66
2023-05-02T09:29:49.134Z,34.62
2023-05-02T09:31:58.882Z,34.53
2023-05-02T09:34:04.011Z,34.4
2023-05-02T09:36:09.074Z,34.36
2023-05-02T09:38:14.121Z,34.42
2023-05-02T09:40:19.186Z,34.29
2023-05-02T09:42:24.283Z,34.19
2023-05-02T09:44:29.354Z,34.16
2023-05-02T09:46:34.917Z,34.12
2023-05-02T09:48:40.081Z,34.02
2023-05-02T09:50:45.233Z,33.98
2023-05-02T09:52:50.244Z,34.01
2023-05-02T09:54:55.411Z,33.99
2023-05-02T09:57:00.440Z,34
2023-05-02T09:59:05.597Z,34.15
2023-05-02T10:01:10.803Z,34.09
2023-05-02T10:03:16.109Z,33.99
2023-05-02T10:05:21.280Z,33.96
2023-05-02T10:07:26.410Z,33.96
2023-05-02T10:09:31.609Z,33.94
2023-05-02T10:11:36.666Z,33.9
2023-05-02T10:13:41.811Z,33.86
2023-05-02T10:15:47.104Z,33.81
2023-05-02T10:17:52.333Z,33.71
2023-05-02T10:19:57.417Z,33.7
2023-05-02T10:22:02.578Z,33.68
2023-05-02T10:24:07.675Z,33.69
2023-05-02T10:26:12.754Z,33.68
2023-05-02T10:28:17.802Z,33.65
2023-05-02T10:30:23.040Z,33.61
2023-05-02T10:32:28.224Z,33.5
2023-05-02T10:34:33.297Z,33.5
2023-05-02T10:36:38.360Z,33.42
2023-05-02T10:38:43.410Z,33.35
2023-05-02T10:40:48.470Z,33.19
2023-05-02T10:42:53.640Z,33.21
2023-05-02T10:44:59.027Z,33.27
2023-05-02T10:47:04.843Z,33.22
2023-05-02T10:49:10.049Z,33.23
2023-05-02T10:51:15.070Z,33.13
2023-05-02T10:53:20.096Z,33.03
2023-05-02T10:55:25.276Z,33.01
2023-05-02T10:57:30.375Z,33
2023-05-02T10:59:35.448Z,32.89
2023-05-02T11:01:40.687Z,32.74
2023-05-02T11:03:45.735Z,32.78
2023-05-02T11:05:50.811Z,32.85
2023-05-02T11:07:55.871Z,32.69
2023-05-02T11:10:01.038Z,32.82
2023-05-02T11:12:06.148Z,32.87
2023-05-02T11:14:11.197Z,32.71
2023-05-02T11:16:16.415Z,32.74
2023-05-02T11:18:21.581Z,32.61
2023-05-02T11:20:26.709Z,32.61
2023-05-02T11:22:31.758Z,32.56
2023-05-02T11:24:36.899Z,32.43
2023-05-02T11:26:41.923Z,32.34
2023-05-02T11:28:47.075Z,32.35
2023-05-02T11:30:52.094Z,32.4
2023-05-02T11:32:57.320Z,32.42
2023-05-02T11:35:03.314Z,32.46
2023-05-02T11:37:08.375Z,32.32
2023-05-02T11:39:13.424Z,32.42
2023-05-02T11:41:18.716Z,32.42
2023-05-02T11:43:23.827Z,32.39
2023-05-02T11:45:28.885Z,32.37
2023-05-02T11:47:34.067Z,32.41
2023-05-02T11:49:39.094Z,32.24
2023-05-02T11:51:44.271Z,32.28
2023-05-02T11:53:49.332Z,32.33
2023-05-02T11:55:54.487Z,32.16
2023-05-02T11:57:59.613Z,32.3
2023-05-02T12:00:04.658Z,32.22
2023-05-02T12:02:09.994Z,32.1
2023-05-02T12:04:15.081Z,32.07
2023-05-02T12:06:21.275Z,32.34
2023-05-02T12:08:26.548Z,32.24
2023-05-02T12:10:31.747Z,32.34
2023-05-02T12:12:36.907Z,32.37
2023-05-02T12:14:42.016Z,32.41
2023-05-02T12:16:47.441Z,32.3
2023-05-02T12:18:52.598Z,32.28
2023-05-02T12:20:57.712Z,32.35
2023-05-02T12:23:02.749Z,32.34
2023-05-02T12:25:08.244Z,32.38
2023-05-02T12:27:13.318Z,32.34
2023-05-02T12:29:18.362Z,32.31
2023-05-02T12:31:23.793Z,32.27
2023-05-02T12:33:29.030Z,32.26
2023-05-02T12:35:34.155Z,32.27
2023-05-02T12:37:39.287Z,32.37
2023-05-02T12:39:44.441Z,32.49
2023-05-02T12:41:49.512Z,32.53
2023-05-02T12:43:54.640Z,32.52
2023-05-02T12:45:59.748Z,32.53
2023-05-02T12:48:05.013Z,32.72
2023-05-02T12:50:10.301Z,32.82
2023-05-02T12:52:15.315Z,33.08
2023-05-02T12:54:20.464Z,33.13
2023-05-02T12:56:25.645Z,33.31
2023-05-02T12:58:30.687Z,33.29
2023-05-02T13:00:35.956Z,33.51
2023-05-02T13:02:41.316Z,33.43
2023-05-02T13:04:46.433Z,33.37
2023-05-02T13:06:51.767Z,33.54
2023-05-02T13:08:57.022Z,33.58
2023-05-02T13:11:02.206Z,33.8
2023-05-02T13:13:07.286Z,33.65
2023-05-02T13:15:12.488Z,33.69
2023-05-02T13:17:17.960Z,33.76
2023-05-02T13:19:23.062Z,33.63
2023-05-02T13:21:28.091Z,33.71
2023-05-02T13:23:33.137Z,34.1
2023-05-02T13:25:38.286Z,34.18
2023-05-02T13:27:43.454Z,34.31
2023-05-02T13:29:48.653Z,34.31
2023-05-02T13:31:53.910Z,34.62
2023-05-02T13:33:59.113Z,34.54
2023-05-02T13:36:04.177Z,34.62
2023-05-02T13:38:09.292Z,34.79
2023-05-02T13:40:14.405Z,34.66
2023-05-02T13:42:19.538Z,34.84
2023-05-02T13:44:24.597Z,34.82
2023-05-02T13:46:29.793Z,34.99
2023-05-02T13:48:34.987Z,34.9
2023-05-02T13:50:40.297Z,34.71
2023-05-02T13:52:47.089Z,34.7
2023-05-02T13:54:53.418Z,34.97
2023-05-02T13:56:58.445Z,35.48
2023-05-02T13:59:05.068Z,35.86
2023-05-02T14:01:12.165Z,36.07
2023-05-02T14:03:17.607Z,36.07
2023-05-02T14:05:23.020Z,36.13
2023-05-02T14:07:28.430Z,36.61
2023-05-02T14:09:33.489Z,35.93
2023-05-02T14:11:38.499Z,35.84
2023-05-02T14:13:43.581Z,36.3
2023-05-02T14:15:48.779Z,36.5
2023-05-02T14:17:54.027Z,36.35
2023-05-02T14:19:59.342Z,36.84
2023-05-02T14:22:04.659Z,36.5
2023-05-02T14:24:09.756Z,36.16
2023-05-02T14:26:14.854Z,36.25
2023-05-02T14:28:19.941Z,36.17
2023-05-02T14:30:25.116Z,36.29
2023-05-02T14:32:30.274Z,36.15
2023-05-02T14:34:35.400Z,35.71
2023-05-02T14:36:40.525Z,36.03
2023-05-02T14:38:45.671Z,36.02
2023-05-02T14:40:50.742Z,36.31
2023-05-02T14:42:55.823Z,35.16
2023-05-02T14:45:02.295Z,35.66
2023-05-02T14:47:07.632Z,35.86
2023-05-02T14:49:12.747Z,35.89
2023-05-02T14:51:18.052Z,35.69
2023-05-02T14:53:23.218Z,35.65
2023-05-02T14:55:28.321Z,35.82
2023-05-02T14:57:33.557Z,35.32
2023-05-02T14:59:38.927Z,35.46
2023-05-02T15:01:44.332Z,35.07
2023-05-02T15:04:09.823Z,35.56
2023-05-02T15:06:15.416Z,35.15
2023-05-02T15:08:20.586Z,35.04
2023-05-02T15:10:25.735Z,34.92
2023-05-02T15:12:30.843Z,34.96
2023-05-02T15:14:36.014Z,34.86
2023-05-02T15:16:41.209Z,35.2
2023-05-02T15:18:46.337Z,34.49
2023-05-02T15:20:51.426Z,34.43
2023-05-02T15:22:56.508Z,34.5
2023-05-02T15:25:03.925Z,34.26
2023-05-02T15:27:10.122Z,34.66
2023-05-02T15:29:15.336Z,34.37
2023-05-02T15:31:20.679Z,34.58
2023-05-02T15:33:25.823Z,34.26
2023-05-02T15:35:30.840Z,34.13
2023-05-02T15:37:35.974Z,34.42
2023-05-02T15:39:41.037Z,34.35
2023-05-02T15:41:46.060Z,34.22
2023-05-02T15:43:51.095Z,34.11
2023-05-02T15:45:56.429Z,34.69
2023-05-02T15:48:01.824Z,34.4
2023-05-02T15:50:07.578Z,34.63
2023-05-02T15:52:12.728Z,35.19
2023-05-02T15:54:17.813Z,36.09
2023-05-02T15:56:23.002Z,35.19
2023-05-02T15:58:28.221Z,35.21
2023-05-02T16:00:33.303Z,34.58
2023-05-02T16:02:38.368Z,34.71
2023-05-02T16:04:43.816Z,34
2023-05-02T16:06:49.213Z,33.87
2023-05-02T16:08:54.321Z,33.57
2023-05-02T16:10:59.374Z,33.48
2023-05-02T16:13:04.502Z,33.42
2023-05-02T16:15:09.656Z,33.61
2023-05-02T16:17:14.717Z,33.18
2023-05-02T16:19:28.860Z,32.88
2023-05-02T16:21:33.948Z,32.47
2023-05-02T16:23:39.007Z,32.41
2023-05-02T16:25:44.236Z,31.9
2023-05-02T16:27:49.305Z,31.69
2023-05-02T16:29:54.366Z,31.6
2023-05-02T16:31:59.969Z,31.77
2023-05-02T16:34:05.361Z,31.71
2023-05-02T16:36:10.472Z,31.45
2023-05-02T16:38:15.500Z,31.73
2023-05-02T16:40:20.568Z,31.94
2023-05-02T16:42:25.665Z,32.01
2023-05-02T16:44:30.678Z,31.93
2023-05-02T16:46:35.973Z,31.7
2023-05-02T16:48:41.184Z,31.26
2023-05-02T16:50:46.196Z,31.28
2023-05-02T16:52:51.301Z,31.12
2023-05-02T16:54:56.402Z,31.48
2023-05-02T16:57:01.570Z,31.45
2023-05-02T16:59:06.682Z,31.66
2023-05-02T17:01:11.930Z,31.89
2023-05-02T17:03:17.261Z,32.46
2023-05-02T17:05:22.421Z,32.41
2023-05-02T17:07:27.507Z,32.28
2023-05-02T17:09:32.658Z,32.38
2023-05-02T17:11:37.688Z,32.58
2023-05-02T17:13:42.721Z,32.82
2023-05-02T17:15:47.783Z,32.58
2023-05-02T17:17:52.984Z,32.45
2023-05-02T17:19:58.454Z,32.39
2023-05-02T17:22:03.573Z,32.78
2023-05-02T17:24:08.631Z,32.92
2023-05-02T17:26:13.801Z,32.43
2023-05-02T17:28:18.875Z,32.63
2023-05-02T17:30:23.950Z,32.77
2023-05-02T17:32:29.345Z,32.49
2023-05-02T17:34:34.535Z,32.73
2023-05-02T17:36:39.623Z,32.71
2023-05-02T17:38:44.692Z,31.94
2023-05-02T17:40:49.776Z,31.59
2023-05-02T17:42:54.781Z,31.5
2023-05-02T17:44:59.809Z,31.62
2023-05-02T17:47:05.017Z,31.87
2023-05-02T17:49:10.151Z,32.54
2023-05-02T17:51:15.206Z,32.47
2023-05-02T17:53:20.304Z,32.52
2023-05-02T17:55:25.331Z,32.75
2023-05-02T17:57:30.399Z,32.53
2023-05-02T17:59:35.440Z,32.59
2023-05-02T18:01:40.696Z,32.94
2023-05-02T18:03:46.428Z,33.19
2023-05-02T18:05:51.689Z,33.27
2023-05-02T18:07:56.753Z,33.17
2023-05-02T18:10:02.544Z,33.04
2023-05-02T18:12:07.984Z,33.28
2023-05-02T18:14:13.067Z,33.26
2023-05-02T18:16:18.447Z,33.62
2023-05-02T18:18:23.630Z,33.98
2023-05-02T18:20:28.807Z,34.11
2023-05-02T18:22:33.986Z,34.46
2023-05-02T18:24:39.227Z,34.23
2023-05-02T18:26:44.337Z,33.94
2023-05-02T18:28:49.428Z,33.93
2023-05-02T18:30:54.543Z,33.31
2023-05-02T18:32:59.716Z,33.28
2023-05-02T18:35:05.441Z,33
2023-05-02T18:37:10.469Z,32.83
2023-05-02T18:39:15.449Z,32.78
2023-05-02T18:41:20.511Z,32.55
2023-05-02T18:43:25.553Z,32.49
2023-05-02T18:45:30.645Z,33.08
2023-05-02T18:47:36.025Z,32.79
2023-05-02T18:49:41.124Z,33.3
2023-05-02T18:51:46.182Z,33.37
2023-05-02T18:53:51.313Z,33.24
2023-05-02T18:55:56.559Z,32.96
2023-05-02T18:58:01.666Z,33.22
2023-05-02T19:00:06.790Z,33.26
2023-05-02T19:02:11.901Z,33.18
2023-05-02T19:04:16.969Z,32.68
2023-05-02T19:06:22.188Z,32.42
2023-05-02T19:08:27.276Z,32.38
2023-05-02T19:10:32.319Z,32.56
2023-05-02T19:12:37.540Z,32.36
2023-05-02T19:14:42.741Z,32.31
2023-05-02T19:16:47.907Z,32.27
2023-05-02T19:18:53.066Z,32.33
2023-05-02T19:20:58.253Z,32.36
2023-05-02T19:23:22.037Z,32.19
2023-05-02T19:25:27.083Z,32.13
2023-05-02T19:27:32.213Z,32.66
2023-05-02T19:29:37.371Z,32.29
2023-05-02T19:31:42.658Z,32.21
2023-05-02T19:33:47.740Z,32.21
2023-05-02T19:35:54.472Z,32.21
2023-05-02T19:37:59.505Z,32.3
2023-05-02T19:40:04.685Z,32.3
2023-05-02T19:42:09.713Z,32.68
2023-05-02T19:44:14.843Z,33.1
2023-05-02T19:46:20.154Z,32.83
2023-05-02T19:48:25.350Z,33.06
2023-05-02T19:50:30.441Z,32.66
2023-05-02T19:52:35.505Z,33.06
2023-05-02T19:54:40.695Z,32.54
2023-05-02T19:56:45.937Z,32.41
2023-05-02T19:58:51.077Z,32.39
2023-05-02T20:00:56.266Z,32.41
2023-05-02T20:03:01.890Z,32.39
2023-05-02T20:05:07.208Z,32.31
2023-05-02T20:07:12.524Z,32.27
2023-05-02T20:09:17.711Z,32.39
2023-05-02T20:11:22.832Z,32.32
2023-05-02T20:13:27.936Z,32.44
2023-05-02T20:15:33.022Z,32.73
2023-05-02T20:17:38.199Z,32.55
2023-05-02T20:19:43.486Z,32.86
2023-05-02T20:21:48.544Z,32.79
2023-05-02T20:23:53.654Z,32.99
2023-05-02T20:25:58.692Z,32.91
2023-05-02T20:28:03.866Z,32.82
2023-05-02T20:30:08.962Z,32.87
2023-05-02T20:32:14.342Z,32.95
2023-05-02T20:34:19.980Z,33.08
2023-05-02T20:36:25.439Z,32.97
2023-05-02T20:38:30.502Z,33.15
2023-05-02T20:40:35.615Z,33.49
2023-05-02T20:42:40.680Z,33.61
2023-05-02T20:44:45.861Z,33.58
2023-05-02T20:46:50.975Z,33.7
2023-05-02T20:48:56.100Z,33.39
2023-05-02T20:51:01.166Z,32.99
2023-05-02T20:53:06.311Z,33.2
2023-05-02T20:55:11.411Z,33.08
2023-05-02T20:57:16.529Z,33.6
2023-05-02T20:59:21.814Z,33.31
2023-05-02T21:01:27.065Z,33.11
2023-05-02T21:03:32.429Z,33.05
2023-05-02T21:05:37.592Z,32.96
2023-05-02T21:07:42.855Z,32.87
2023-05-02T21:09:48.030Z,32.9
2023-05-02T21:11:53.238Z,32.87
2023-05-02T21:13:58.322Z,33.15
2023-05-02T21:16:03.656Z,32.98
2023-05-02T21:18:08.944Z,32.96
2023-05-02T21:20:14.042Z,33.17
2023-05-02T21:22:19.345Z,33.6
2023-05-02T21:24:24.400Z,33.37
2023-05-02T21:26:29.566Z,33.56
2023-05-02T21:28:34.672Z,33.41
2023-05-02T21:30:39.768Z,33.25
2023-05-02T21:32:45.104Z,33.21
2023-05-02T21:34:50.256Z,33.12
2023-05-02T21:36:55.276Z,32.98
2023-05-02T21:39:00.449Z,33.11
2023-05-02T21:41:05.655Z,33.07
2023-05-02T21:43:10.830Z,32.91
2023-05-02T21:45:16.015Z,33.35
2023-05-02T21:47:21.318Z,33.8
2023-05-02T21:49:26.541Z,33.46
2023-05-02T21:51:31.571Z,33.51
2023-05-02T21:53:36.700Z,33.04
2023-05-02T21:55:41.912Z,33.88
2023-05-02T21:57:47.029Z,33.41
2023-05-02T21:59:52.074Z,32.95
2023-05-02T22:01:57.797Z,32.81
2023-05-02T22:04:02.824Z,32.75
2023-05-02T22:06:08.358Z,32.62
2023-05-02T22:08:13.728Z,32.55
2023-05-02T22:10:18.773Z,32.5
2023-05-02T22:12:23.830Z,32.48
2023-05-02T22:14:46.892Z,32.4
2023-05-02T22:16:52.184Z,32.39
2023-05-02T22:18:57.181Z,32.41
2023-05-02T22:21:03.548Z,32.45
2023-05-02T22:23:08.672Z,32.42
2023-05-02T22:25:13.855Z,32.41
2023-05-02T22:27:18.890Z,32.37
2023-05-02T22:29:24.103Z,32.37
2023-05-02T22:31:29.296Z,32.29
2023-05-02T22:33:34.422Z,32.32
2023-05-02T22:35:39.756Z,32.29
2023-05-02T22:37:44.772Z,32.32
2023-05-02T22:39:50.497Z,32.31
2023-05-02T22:41:55.624Z,32.27
2023-05-02T22:44:00.665Z,32.27
2023-05-02T22:46:05.967Z,32.33
2023-05-02T22:48:11.276Z,32.3
2023-05-02T22:50:16.686Z,32.3
2023-05-02T22:52:22.068Z,32.24
2023-05-02T22:54:27.119Z,32.25
2023-05-02T22:56:32.241Z,32.24
2023-05-02T22:58:37.388Z,32.21
2023-05-02T23:00:42.481Z,32.24
2023-05-02T23:02:48.096Z,32.2
2023-05-02T23:04:53.146Z,32.2
2023-05-02T23:06:58.343Z,32.19
2023-05-02T23:09:03.480Z,32.18
2023-05-02T23:11:08.726Z,32.1
2023-05-02T23:13:13.890Z,32.38
2023-05-02T23:15:19.054Z,32.19
2023-05-02T23:17:24.358Z,32.06
2023-05-02T23:19:29.472Z,32.08
2023-05-02T23:21:34.657Z,32.09
2023-05-02T23:23:39.771Z,32.07
2023-05-02T23:25:44.830Z,32.13
2023-05-02T23:27:49.928Z,32.16
2023-05-02T23:29:55.079Z,31.94
2023-05-02T23:32:00.560Z,31.92
2023-05-02T23:34:05.785Z,31.92
2023-05-02T23:36:10.852Z,31.92
2023-05-02T23:38:15.933Z,31.84
2023-05-02T23:40:20.969Z,31.74
2023-05-02T23:42:26.267Z,31.71
2023-05-02T23:44:31.865Z,31.63
2023-05-02T23:46:37.077Z,31.58
2023-05-02T23:48:42.337Z,31.54
2023-05-02T23:50:47.614Z,31.39
2023-05-02T23:52:52.770Z,31.36
2023-05-02T23:54:58.164Z,31.27
2023-05-02T23:57:03.362Z,31.15
2023-05-02T23:59:08.663Z,31
